createdAt,value
2023-04-29T00:01:25.998Z,14.02
2023-04-29T00:03:53.726Z,14.35
2023-04-29T00:06:21.519Z,14.05
2023-04-29T00:08:48.539Z,15.10
2023-04-29T00:11:15.529Z,13.75
2023-04-29T00:13:42.446Z,14.40
2023-04-29T00:16:12.850Z,12.93
2023-04-29T00:18:39.778Z,13.45
2023-04-29T00:21:06.779Z,13.68
2023-04-29T00:23:34.566Z,13.52
2023-04-29T00:26:01.538Z,13.30
2023-04-29T00:28:28.593Z,14.07
2023-04-29T00:30:56.204Z,12.38
2023-04-29T00:33:23.474Z,12.77
2023-04-29T00:35:50.907Z,13.57
2023-04-29T00:38:17.824Z,13.93
2023-04-29T00:40:45.409Z,13.85
2023-04-29T00:43:12.632Z,12.50
2023-04-29T00:45:40.360Z,13.70
2023-04-29T00:48:07.850Z,13.50
2023-04-29T00:50:36.752Z,13.57
2023-04-29T00:53:04.267Z,13.23
2023-04-29T00:55:32.893Z,13.00
2023-04-29T00:58:02.619Z,13.73
2023-04-29T01:00:30.262Z,15.05
2023-04-29T01:02:59.736Z,14.05
2023-04-29T01:05:27.097Z,14.65
2023-04-29T01:08:32.733Z,13.68
2023-04-29T01:11:09.820Z,14.32
2023-04-29T01:13:58.970Z,14.55
2023-04-29T01:16:38.800Z,14.40
2023-04-29T01:19:33.628Z,12.43
2023-04-29T01:22:00.563Z,13.88
2023-04-29T01:24:27.477Z,12.57
2023-04-29T01:27:14.414Z,12.98
2023-04-29T01:29:54.309Z,13.35
2023-04-29T01:32:47.869Z,13.82
2023-04-29T01:35:17.673Z,12.85
2023-04-29T01:37:57.926Z,13.25
2023-04-29T01:40:38.663Z,12.85
2023-04-29T01:43:16.856Z,12.65
2023-04-29T01:45:47.245Z,12.82
2023-04-29T01:48:16.653Z,12.02
2023-04-29T01:50:44.589Z,13.38
2023-04-29T01:53:13.197Z,13.90
2023-04-29T01:55:40.401Z,13.00
2023-04-29T01:58:21.955Z,13.52
2023-04-29T02:01:10.439Z,13.30
2023-04-29T02:03:37.915Z,13.75
2023-04-29T02:06:08.056Z,12.82
2023-04-29T02:08:36.351Z,12.95
2023-04-29T02:11:03.411Z,12.45
2023-04-29T02:13:36.952Z,12.18
2023-04-29T02:16:11.913Z,12.57
2023-04-29T02:18:44.405Z,11.38
2023-04-29T02:21:12.288Z,12.15
2023-04-29T02:23:39.493Z,12.13
2023-04-29T02:26:07.015Z,13.20
2023-04-29T02:28:35.089Z,12.75
2023-04-29T02:31:02.395Z,11.65
2023-04-29T02:33:30.760Z,12.13
2023-04-29T02:35:57.688Z,11.07
2023-04-29T02:38:24.620Z,11.85
2023-04-29T02:40:51.857Z,11.32
2023-04-29T02:43:18.805Z,11.98
2023-04-29T02:45:45.844Z,11.65
2023-04-29T02:48:13.133Z,11.55
2023-04-29T02:50:40.856Z,12.57
2023-04-29T02:53:07.834Z,12.77
2023-04-29T02:55:34.778Z,11.88
2023-04-29T02:58:07.561Z,11.85
2023-04-29T03:00:34.485Z,11.85
2023-04-29T03:03:01.969Z,12.65
2023-04-29T03:05:29.170Z,12.73
2023-04-29T03:07:56.228Z,12.27
2023-04-29T03:10:23.222Z,12.27
2023-04-29T03:12:50.211Z,12.63
2023-04-29T03:15:17.401Z,11.70
2023-04-29T03:17:46.532Z,12.68
2023-04-29T03:20:14.179Z,12.48
2023-04-29T03:22:41.210Z,12.55
2023-04-29T03:25:10.606Z,11.63
2023-04-29T03:27:39.577Z,12.77
2023-04-29T03:30:08.010Z,13.07
2023-04-29T03:32:38.736Z,12.23
2023-04-29T03:35:06.246Z,12.55
2023-04-29T03:37:40.141Z,13.55
2023-04-29T03:40:22.401Z,12.25
2023-04-29T03:42:50.562Z,13.13
2023-04-29T03:45:18.741Z,12.52
2023-04-29T03:47:45.673Z,13.98
2023-04-29T03:50:12.696Z,13.23
2023-04-29T03:52:41.049Z,13.37
2023-04-29T03:57:42.815Z,12.93
2023-04-29T04:00:11.471Z,13.30
2023-04-29T04:02:45.176Z,14.48
2023-04-29T04:05:13.269Z,13.95
2023-04-29T04:07:43.814Z,13.70
2023-04-29T04:10:31.067Z,12.73
2023-04-29T04:12:59.712Z,13.15
2023-04-29T04:15:26.875Z,13.25
2023-04-29T04:17:54.017Z,13.63
2023-04-29T04:20:21.003Z,12.43
2023-04-29T04:22:49.776Z,13.38
2023-04-29T04:25:21.377Z,13.75
2023-04-29T04:27:48.982Z,13.02
2023-04-29T04:30:27.413Z,14.85
2023-04-29T04:32:54.804Z,14.07
2023-04-29T04:35:22.081Z,13.68
2023-04-29T04:37:50.285Z,14.25
2023-04-29T04:40:17.259Z,14.23
2023-04-29T04:43:17.571Z,13.38
2023-04-29T04:45:44.657Z,14.07
2023-04-29T04:48:11.684Z,13.45
2023-04-29T04:50:40.226Z,14.27
2023-04-29T04:53:07.327Z,14.18
2023-04-29T04:56:03.577Z,14.13
2023-04-29T04:58:32.667Z,13.25
2023-04-29T05:01:02.874Z,14.45
2023-04-29T05:03:30.050Z,14.85
2023-04-29T05:06:00.817Z,14.45
2023-04-29T05:08:28.645Z,13.45
2023-04-29T05:10:58.709Z,13.93
2023-04-29T05:13:26.091Z,14.38
2023-04-29T05:15:53.861Z,15.47
2023-04-29T05:18:24.579Z,15.00
2023-04-29T05:20:52.601Z,13.98
2023-04-29T05:23:19.648Z,15.00
2023-04-29T05:25:47.240Z,14.63
2023-04-29T05:28:16.882Z,12.95
2023-04-29T05:30:44.985Z,14.02
2023-04-29T05:33:12.257Z,14.07
2023-04-29T05:35:39.730Z,13.25
2023-04-29T05:38:06.803Z,14.05
2023-04-29T05:40:39.812Z,13.98
2023-04-29T05:43:29.732Z,13.13
2023-04-29T05:45:57.737Z,14.20
2023-04-29T05:48:25.203Z,13.10
2023-04-29T05:50:53.936Z,13.85
2023-04-29T05:53:21.000Z,13.13
2023-04-29T05:55:51.211Z,12.70
2023-04-29T05:58:20.543Z,13.50
2023-04-29T06:00:49.545Z,13.05
2023-04-29T06:03:21.856Z,18.05
2023-04-29T06:05:56.434Z,14.18
2023-04-29T06:08:53.613Z,12.80
2023-04-29T06:11:25.191Z,13.10
2023-04-29T06:13:52.604Z,13.38
2023-04-29T06:16:20.617Z,13.77
2023-04-29T06:18:47.597Z,14.15
2023-04-29T06:21:16.339Z,13.82
2023-04-29T06:23:43.639Z,13.93
2023-04-29T06:26:16.479Z,13.95
2023-04-29T06:28:43.621Z,14.90
2023-04-29T06:31:11.174Z,13.02
2023-04-29T06:33:38.275Z,15.02
2023-04-29T06:36:06.135Z,15.00
2023-04-29T06:38:51.770Z,15.25
2023-04-29T06:41:37.088Z,14.20
2023-04-29T06:44:33.404Z,15.20
2023-04-29T06:47:20.196Z,15.15
2023-04-29T06:50:13.173Z,17.45
2023-04-29T06:52:40.186Z,16.48
2023-04-29T06:55:07.601Z,15.90
2023-04-29T06:57:35.208Z,20.15
2023-04-29T07:00:02.212Z,18.92
2023-04-29T07:02:29.295Z,20.65
2023-04-29T07:04:56.574Z,19.70
2023-04-29T07:07:23.800Z,19.45
2023-04-29T07:09:52.857Z,19.80
2023-04-29T07:12:20.830Z,18.65
2023-04-29T07:14:48.017Z,19.45
2023-04-29T07:17:14.991Z,19.55
2023-04-29T07:19:42.715Z,18.87
2023-04-29T07:22:10.861Z,18.10
2023-04-29T07:24:37.884Z,18.30
2023-04-29T07:27:04.933Z,18.83
2023-04-29T07:29:32.650Z,18.80
2023-04-29T07:31:59.605Z,18.38
2023-04-29T07:34:27.424Z,20.08
2023-04-29T07:36:54.574Z,18.70
2023-04-29T07:39:21.694Z,20.13
2023-04-29T07:41:53.810Z,19.02
2023-04-29T07:44:21.938Z,18.65
2023-04-29T07:46:49.004Z,18.10
2023-04-29T07:49:16.928Z,18.90
2023-04-29T07:51:44.238Z,18.58
2023-04-29T07:54:11.225Z,19.33
2023-04-29T07:56:38.151Z,19.60
2023-04-29T07:59:07.304Z,17.75
2023-04-29T08:01:34.261Z,19.95
2023-04-29T08:04:01.904Z,18.13
2023-04-29T08:06:29.515Z,18.20
2023-04-29T08:08:56.732Z,16.92
2023-04-29T08:11:24.612Z,17.15
2023-04-29T08:13:51.903Z,16.30
2023-04-29T08:16:19.229Z,17.88
2023-04-29T08:18:46.261Z,16.98
2023-04-29T08:21:13.348Z,15.07
2023-04-29T08:23:40.705Z,15.43
2023-04-29T08:26:09.657Z,13.30
2023-04-29T08:28:36.598Z,13.73
2023-04-29T08:31:03.657Z,11.07
2023-04-29T08:33:30.595Z,15.15
2023-04-29T08:36:01.606Z,14.07
2023-04-29T08:43:23.670Z,15.65
2023-04-29T08:45:50.773Z,15.25
2023-04-29T18:15:00.743Z,15.00
2023-04-29T18:17:27.805Z,14.63
2023-04-29T18:19:55.114Z,14.30
2023-04-29T18:22:22.221Z,16.50
2023-04-29T18:24:49.765Z,15.55
2023-04-29T18:27:16.717Z,16.70
2023-04-29T18:29:45.270Z,17.73
2023-04-29T18:32:12.313Z,17.25
2023-04-29T18:34:39.317Z,15.15
2023-04-29T18:37:06.677Z,17.65
2023-04-29T18:39:33.923Z,15.00
2023-04-29T18:42:00.966Z,15.18
2023-04-29T18:44:28.875Z,15.57
2023-04-29T18:46:55.915Z,15.57
2023-04-29T18:49:22.860Z,18.38
2023-04-29T18:51:49.987Z,18.08
2023-04-29T18:54:20.061Z,17.80
2023-04-29T18:56:49.476Z,16.83
2023-04-29T18:59:19.637Z,15.80
2023-04-29T19:01:48.335Z,16.52
2023-04-29T19:04:15.973Z,17.58
2023-04-29T19:06:43.441Z,16.55
2023-04-29T19:09:11.415Z,17.15
2023-04-29T19:11:38.588Z,16.65
2023-04-29T19:14:06.146Z,18.00
2023-04-29T19:16:35.505Z,17.80
2023-04-29T19:19:04.238Z,17.98
2023-04-29T19:21:35.839Z,18.75
2023-04-29T19:24:03.146Z,18.00
2023-04-29T19:26:32.860Z,19.20
2023-04-29T19:29:01.880Z,18.00
2023-04-29T19:31:29.098Z,18.67
2023-04-29T19:33:56.151Z,19.23
2023-04-29T19:36:23.219Z,18.55
2023-04-29T19:38:50.427Z,20.02
2023-04-29T19:41:17.968Z,19.58
2023-04-29T19:43:45.112Z,20.70
2023-04-29T19:46:12.972Z,19.15
2023-04-29T19:48:40.346Z,19.50
2023-04-29T19:51:08.503Z,19.55
2023-04-29T19:53:38.817Z,19.23
2023-04-29T19:56:06.077Z,20.85
2023-04-29T19:58:33.401Z,20.25
2023-04-29T20:01:00.785Z,20.30
2023-04-29T20:03:27.841Z,19.70
2023-04-29T20:05:55.211Z,20.55
2023-04-29T20:08:22.339Z,19.98
2023-04-29T20:10:49.383Z,20.98
2023-04-29T20:13:16.689Z,19.33
2023-04-29T20:15:43.954Z,21.10
2023-04-29T20:18:11.403Z,19.77
2023-04-29T20:20:38.453Z,20.25
2023-04-29T20:23:05.894Z,20.20
2023-04-29T20:25:33.058Z,20.20
2023-04-29T20:28:00.059Z,20.95
2023-04-29T20:30:27.231Z,21.05
2023-04-29T20:32:54.390Z,20.42
2023-04-29T20:35:21.653Z,21.55
2023-04-29T20:37:48.645Z,21.85
2023-04-29T20:40:15.622Z,21.45
2023-04-29T20:42:42.566Z,21.50
2023-04-29T20:45:11.547Z,20.95
2023-04-29T20:47:38.645Z,21.85
2023-04-29T20:50:06.904Z,22.23
2023-04-29T20:52:34.482Z,21.60
2023-04-29T20:55:01.567Z,22.65
2023-04-29T20:57:29.128Z,22.67
2023-04-29T20:59:56.226Z,21.42
2023-04-29T21:02:24.172Z,22.08
2023-04-29T21:04:51.842Z,21.98
2023-04-29T21:07:19.015Z,21.55
2023-04-29T21:09:46.167Z,23.33
2023-04-29T21:12:14.918Z,23.40
2023-04-29T21:14:42.700Z,22.85
2023-04-29T21:17:09.888Z,22.50
2023-04-29T21:19:37.724Z,21.55
2023-04-29T21:22:04.989Z,22.05
2023-04-29T21:24:32.226Z,23.35
2023-04-29T21:26:59.249Z,23.65
2023-04-29T21:29:26.507Z,21.20
2023-04-29T21:31:53.464Z,21.50
2023-04-29T21:34:25.750Z,23.35
2023-04-29T21:36:53.422Z,23.45
2023-04-29T21:39:20.548Z,22.23
2023-04-29T21:41:47.555Z,22.70
2023-04-29T21:44:14.502Z,22.55
2023-04-29T21:46:41.620Z,22.30
2023-04-29T21:49:08.936Z,23.38
2023-04-29T21:51:36.093Z,22.23
2023-04-29T21:54:08.445Z,23.23
2023-04-29T21:56:36.108Z,23.17
2023-04-29T21:59:03.458Z,25.00
2023-04-29T22:01:45.538Z,23.15
2023-04-29T22:04:12.475Z,23.00
2023-04-29T22:06:39.650Z,22.52
2023-04-29T22:09:07.312Z,23.15
2023-04-29T22:11:34.442Z,22.35
2023-04-29T22:14:01.586Z,23.55
2023-04-29T22:16:28.515Z,22.30
2023-04-29T22:18:57.517Z,23.33
2023-04-29T22:21:24.655Z,22.90
2023-04-29T22:23:51.764Z,22.73
2023-04-29T22:26:18.796Z,24.15
2023-04-29T22:28:45.870Z,23.55
2023-04-29T22:31:12.813Z,23.95
2023-04-29T22:33:39.768Z,22.58
2023-04-29T22:36:07.160Z,23.35
2023-04-29T22:38:35.007Z,23.90
2023-04-29T22:41:01.966Z,23.52
2023-04-29T22:43:28.964Z,21.73
2023-04-29T22:45:56.859Z,23.75
2023-04-29T22:48:27.300Z,23.23
2023-04-29T22:50:57.073Z,24.27
2023-04-29T22:53:24.080Z,23.30
2023-04-29T22:55:55.299Z,23.00
2023-04-29T22:58:24.650Z,23.52
2023-04-29T23:00:54.142Z,23.85
2023-04-29T23:03:21.293Z,24.45
2023-04-29T23:05:48.289Z,23.67
2023-04-29T23:08:16.118Z,21.67
2023-04-29T23:10:49.418Z,22.98
2023-04-29T23:13:17.070Z,23.58
2023-04-29T23:15:44.441Z,22.02
2023-04-29T23:18:11.890Z,22.88
2023-04-29T23:20:38.921Z,23.65
2023-04-29T23:23:06.036Z,23.50
2023-04-29T23:25:32.994Z,23.33
2023-04-29T23:27:59.946Z,23.90
2023-04-29T23:30:26.887Z,23.70
2023-04-29T23:32:53.925Z,22.42
2023-04-29T23:35:21.614Z,21.45
2023-04-29T23:37:48.540Z,23.08
2023-04-29T23:40:18.486Z,22.70
2023-04-29T23:42:45.505Z,23.00
2023-04-29T23:45:12.450Z,21.92
2023-04-29T23:47:39.410Z,21.88
2023-04-29T23:50:07.115Z,23.08
2023-04-29T23:52:34.063Z,23.17
2023-04-29T23:55:01.048Z,21.98
2023-04-29T23:57:27.994Z,22.20
2023-04-29T23:59:55.122Z,23.35
